sensor_id;sensor_type;location;lat;lon;timestamp;temperature;humidity
33023;DHT22;19390;51.460;5.710;2023-04-15T00:00:14;6.90;99.90
33023;DHT22;19390;51.460;5.710;2023-04-15T00:02:40;6.80;99.90
33023;DHT22;19390;51.460;5.710;2023-04-15T00:05:06;6.80;99.90
33023;DHT22;19390;51.460;5.710;2023-04-15T00:07:32;6.70;99.90
33023;DHT22;19390;51.460;5.710;2023-04-15T00:09:58;6.60;99.90
33023;DHT22;19390;51.460;5.710;2023-04-15T00:12:27;6.60;99.90
33023;DHT22;19390;51.460;5.710;2023-04-15T00:14:52;6.40;99.90
33023;DHT22;19390;51.460;5.710;2023-04-15T00:17:19;6.40;99.90
33023;DHT22;19390;51.460;5.710;2023-04-15T00:19:44;6.30;99.90
33023;DHT22;19390;51.460;5.710;2023-04-15T00:22:11;6.20;99.90
33023;DHT22;19390;51.460;5.710;2023-04-15T00:24:37;6.10;99.90
33023;DHT22;19390;51.460;5.710;2023-04-15T00:27:02;6.10;99.90
33023;DHT22;19390;51.460;5.710;2023-04-15T00:29:28;6.20;99.90
33023;DHT22;19390;51.460;5.710;2023-04-15T00:31:55;6.20;99.90
33023;DHT22;19390;51.460;5.710;2023-04-15T00:34:21;6.20;99.90
33023;DHT22;19390;51.460;5.710;2023-04-15T00:36:47;6.10;99.90
33023;DHT22;19390;51.460;5.710;2023-04-15T00:39:13;6.00;99.90
33023;DHT22;19390;51.460;5.710;2023-04-15T00:41:38;5.90;99.90
33023;DHT22;19390;51.460;5.710;2023-04-15T00:44:05;6.00;99.90
33023;DHT22;19390;51.460;5.710;2023-04-15T00:46:33;6.00;99.90
33023;DHT22;19390;51.460;5.710;2023-04-15T00:49:00;6.00;99.90
33023;DHT22;19390;51.460;5.710;2023-04-15T00:51:27;5.90;99.90
33023;DHT22;19390;51.460;5.710;2023-04-15T00:53:52;5.90;99.90
33023;DHT22;19390;51.460;5.710;2023-04-15T00:56:19;5.90;99.90
33023;DHT22;19390;51.460;5.710;2023-04-15T00:58:46;5.80;99.90
33023;DHT22;19390;51.460;5.710;2023-04-15T01:01:12;5.90;99.90
33023;DHT22;19390;51.460;5.710;2023-04-15T01:03:38;5.90;99.90
33023;DHT22;19390;51.460;5.710;2023-04-15T01:06:04;5.70;99.90
33023;DHT22;19390;51.460;5.710;2023-04-15T01:08:29;5.80;99.90
33023;DHT22;19390;51.460;5.710;2023-04-15T01:10:57;5.80;99.90
33023;DHT22;19390;51.460;5.710;2023-04-15T01:13:25;5.80;99.90
33023;DHT22;19390;51.460;5.710;2023-04-15T01:15:52;5.90;99.90
33023;DHT22;19390;51.460;5.710;2023-04-15T01:18:18;5.90;99.90
33023;DHT22;19390;51.460;5.710;2023-04-15T01:20:45;5.90;99.90
33023;DHT22;19390;51.460;5.710;2023-04-15T01:23:11;5.90;99.90
33023;DHT22;19390;51.460;5.710;2023-04-15T01:25:37;6.00;99.90
33023;DHT22;19390;51.460;5.710;2023-04-15T01:28:04;5.90;99.90
33023;DHT22;19390;51.460;5.710;2023-04-15T01:30:33;5.90;99.90
33023;DHT22;19390;51.460;5.710;2023-04-15T01:32:59;5.80;99.90
33023;DHT22;19390;51.460;5.710;2023-04-15T01:35:24;5.90;99.90
33023;DHT22;19390;51.460;5.710;2023-04-15T01:37:52;5.90;99.90
33023;DHT22;19390;51.460;5.710;2023-04-15T01:40:18;5.90;99.90
33023;DHT22;19390;51.460;5.710;2023-04-15T01:42:45;5.90;99.90
33023;DHT22;19390;51.460;5.710;2023-04-15T01:45:11;5.90;99.90
33023;DHT22;19390;51.460;5.710;2023-04-15T01:47:38;5.90;99.90
33023;DHT22;19390;51.460;5.710;2023-04-15T01:50:04;5.90;99.90
33023;DHT22;19390;51.460;5.710;2023-04-15T01:52:31;5.80;99.90
33023;DHT22;19390;51.460;5.710;2023-04-15T01:54:56;5.80;99.90
33023;DHT22;19390;51.460;5.710;2023-04-15T01:57:22;5.80;99.90
33023;DHT22;19390;51.460;5.710;2023-04-15T01:59:48;5.70;99.90
33023;DHT22;19390;51.460;5.710;2023-04-15T02:02:13;5.70;99.90
33023;DHT22;19390;51.460;5.710;2023-04-15T02:04:39;5.70;99.90
33023;DHT22;19390;51.460;5.710;2023-04-15T02:07:05;5.60;99.90
33023;DHT22;19390;51.460;5.710;2023-04-15T02:09:31;5.70;99.90
33023;DHT22;19390;51.460;5.710;2023-04-15T02:11:57;5.60;99.90
33023;DHT22;19390;51.460;5.710;2023-04-15T02:14:22;5.70;99.90
33023;DHT22;19390;51.460;5.710;2023-04-15T02:16:48;5.70;99.90
33023;DHT22;19390;51.460;5.710;2023-04-15T02:19:13;5.90;99.90
33023;DHT22;19390;51.460;5.710;2023-04-15T02:21:39;5.80;99.90
33023;DHT22;19390;51.460;5.710;2023-04-15T02:24:05;5.70;99.90
33023;DHT22;19390;51.460;5.710;2023-04-15T02:26:31;5.70;99.90
33023;DHT22;19390;51.460;5.710;2023-04-15T02:28:58;5.70;99.90
33023;DHT22;19390;51.460;5.710;2023-04-15T02:31:24;5.70;99.90
33023;DHT22;19390;51.460;5.710;2023-04-15T02:33:50;5.70;99.90
33023;DHT22;19390;51.460;5.710;2023-04-15T02:36:15;5.70;99.90
33023;DHT22;19390;51.460;5.710;2023-04-15T02:38:41;5.60;99.90
33023;DHT22;19390;51.460;5.710;2023-04-15T02:41:08;5.70;99.90
33023;DHT22;19390;51.460;5.710;2023-04-15T02:43:34;5.60;99.90
33023;DHT22;19390;51.460;5.710;2023-04-15T02:46:00;5.50;99.90
33023;DHT22;19390;51.460;5.710;2023-04-15T02:48:25;5.50;99.90
33023;DHT22;19390;51.460;5.710;2023-04-15T02:50:51;5.50;99.90
33023;DHT22;19390;51.460;5.710;2023-04-15T02:53:17;5.40;99.90
33023;DHT22;19390;51.460;5.710;2023-04-15T02:55:44;5.40;99.90
33023;DHT22;19390;51.460;5.710;2023-04-15T02:58:10;5.40;99.90
33023;DHT22;19390;51.460;5.710;2023-04-15T03:00:36;5.40;99.90
33023;DHT22;19390;51.460;5.710;2023-04-15T03:03:03;5.40;99.90
33023;DHT22;19390;51.460;5.710;2023-04-15T03:05:28;5.20;99.90
33023;DHT22;19390;51.460;5.710;2023-04-15T03:07:54;5.20;99.90
33023;DHT22;19390;51.460;5.710;2023-04-15T03:10:20;5.20;99.90
33023;DHT22;19390;51.460;5.710;2023-04-15T03:12:46;5.20;99.90
33023;DHT22;19390;51.460;5.710;2023-04-15T03:15:12;5.00;99.90
33023;DHT22;19390;51.460;5.710;2023-04-15T03:17:38;5.20;99.90
33023;DHT22;19390;51.460;5.710;2023-04-15T03:20:05;5.00;99.90
33023;DHT22;19390;51.460;5.710;2023-04-15T03:22:31;4.90;99.90
33023;DHT22;19390;51.460;5.710;2023-04-15T03:24:57;4.90;99.90
33023;DHT22;19390;51.460;5.710;2023-04-15T03:27:23;4.90;99.90
33023;DHT22;19390;51.460;5.710;2023-04-15T03:29:49;4.90;99.90
33023;DHT22;19390;51.460;5.710;2023-04-15T03:32:14;4.70;99.90
33023;DHT22;19390;51.460;5.710;2023-04-15T03:34:41;4.60;99.90
33023;DHT22;19390;51.460;5.710;2023-04-15T03:37:07;4.60;99.90
33023;DHT22;19390;51.460;5.710;2023-04-15T03:39:33;4.80;99.90
33023;DHT22;19390;51.460;5.710;2023-04-15T03:41:58;5.00;99.90
33023;DHT22;19390;51.460;5.710;2023-04-15T03:44:25;4.80;99.90
33023;DHT22;19390;51.460;5.710;2023-04-15T03:46:51;4.70;99.90
33023;DHT22;19390;51.460;5.710;2023-04-15T03:49:16;4.70;99.90
33023;DHT22;19390;51.460;5.710;2023-04-15T03:51:43;4.80;99.90
33023;DHT22;19390;51.460;5.710;2023-04-15T03:54:09;4.70;99.90
33023;DHT22;19390;51.460;5.710;2023-04-15T03:56:35;4.60;99.90
33023;DHT22;19390;51.460;5.710;2023-04-15T03:59:01;4.50;99.90
33023;DHT22;19390;51.460;5.710;2023-04-15T04:01:26;4.60;99.90
33023;DHT22;19390;51.460;5.710;2023-04-15T04:03:52;4.60;99.90
33023;DHT22;19390;51.460;5.710;2023-04-15T04:06:18;4.60;99.90
33023;DHT22;19390;51.460;5.710;2023-04-15T04:08:43;4.60;99.90
33023;DHT22;19390;51.460;5.710;2023-04-15T04:11:09;4.50;99.90
33023;DHT22;19390;51.460;5.710;2023-04-15T04:13:34;4.60;99.90
33023;DHT22;19390;51.460;5.710;2023-04-15T04:16:00;4.60;99.90
33023;DHT22;19390;51.460;5.710;2023-04-15T04:18:26;4.50;99.90
33023;DHT22;19390;51.460;5.710;2023-04-15T04:20:51;4.40;99.90
33023;DHT22;19390;51.460;5.710;2023-04-15T04:23:17;4.30;99.90
33023;DHT22;19390;51.460;5.710;2023-04-15T04:25:42;4.40;99.90
33023;DHT22;19390;51.460;5.710;2023-04-15T04:28:08;4.30;99.90
33023;DHT22;19390;51.460;5.710;2023-04-15T04:30:34;4.40;99.90
33023;DHT22;19390;51.460;5.710;2023-04-15T04:33:00;4.50;99.90
33023;DHT22;19390;51.460;5.710;2023-04-15T04:35:26;4.50;99.90
33023;DHT22;19390;51.460;5.710;2023-04-15T04:37:51;4.50;99.90
33023;DHT22;19390;51.460;5.710;2023-04-15T04:40:18;4.60;99.90
33023;DHT22;19390;51.460;5.710;2023-04-15T04:42:43;4.60;99.90
33023;DHT22;19390;51.460;5.710;2023-04-15T04:45:09;4.70;99.90
33023;DHT22;19390;51.460;5.710;2023-04-15T04:47:35;4.60;99.90
33023;DHT22;19390;51.460;5.710;2023-04-15T04:50:00;4.70;99.90
33023;DHT22;19390;51.460;5.710;2023-04-15T04:52:26;4.70;99.90
33023;DHT22;19390;51.460;5.710;2023-04-15T04:54:52;4.60;99.90
33023;DHT22;19390;51.460;5.710;2023-04-15T04:57:17;4.70;99.90
33023;DHT22;19390;51.460;5.710;2023-04-15T04:59:43;4.60;99.90
33023;DHT22;19390;51.460;5.710;2023-04-15T05:02:08;4.70;99.90
33023;DHT22;19390;51.460;5.710;2023-04-15T05:04:34;4.70;99.90
33023;DHT22;19390;51.460;5.710;2023-04-15T05:07:01;4.90;99.90
33023;DHT22;19390;51.460;5.710;2023-04-15T05:09:26;4.80;99.90
33023;DHT22;19390;51.460;5.710;2023-04-15T05:11:52;4.80;99.90
33023;DHT22;19390;51.460;5.710;2023-04-15T05:14:18;5.00;99.90
33023;DHT22;19390;51.460;5.710;2023-04-15T05:16:43;5.00;99.90
33023;DHT22;19390;51.460;5.710;2023-04-15T05:19:09;5.00;99.90
33023;DHT22;19390;51.460;5.710;2023-04-15T05:21:35;5.20;99.90
33023;DHT22;19390;51.460;5.710;2023-04-15T05:24:01;5.60;99.90
33023;DHT22;19390;51.460;5.710;2023-04-15T05:26:26;6.00;99.90
33023;DHT22;19390;51.460;5.710;2023-04-15T05:28:52;6.40;99.90
33023;DHT22;19390;51.460;5.710;2023-04-15T05:31:18;6.70;99.90
33023;DHT22;19390;51.460;5.710;2023-04-15T05:33:44;7.20;99.90
33023;DHT22;19390;51.460;5.710;2023-04-15T05:36:09;7.70;99.90
33023;DHT22;19390;51.460;5.710;2023-04-15T05:38:35;8.50;99.90
33023;DHT22;19390;51.460;5.710;2023-04-15T05:41:01;8.20;99.90
33023;DHT22;19390;51.460;5.710;2023-04-15T05:43:27;7.70;99.90
33023;DHT22;19390;51.460;5.710;2023-04-15T05:45:52;7.60;99.90
33023;DHT22;19390;51.460;5.710;2023-04-15T05:48:18;7.30;99.90
33023;DHT22;19390;51.460;5.710;2023-04-15T05:50:43;7.10;99.90
33023;DHT22;19390;51.460;5.710;2023-04-15T05:53:09;7.30;99.90
33023;DHT22;19390;51.460;5.710;2023-04-15T05:55:35;7.50;99.90
33023;DHT22;19390;51.460;5.710;2023-04-15T05:58:01;7.90;99.90
33023;DHT22;19390;51.460;5.710;2023-04-15T06:00:28;8.20;99.90
33023;DHT22;19390;51.460;5.710;2023-04-15T06:02:55;8.80;99.90
33023;DHT22;19390;51.460;5.710;2023-04-15T06:05:20;8.90;99.90
33023;DHT22;19390;51.460;5.710;2023-04-15T06:07:46;8.90;99.90
33023;DHT22;19390;51.460;5.710;2023-04-15T06:10:12;9.60;99.90
33023;DHT22;19390;51.460;5.710;2023-04-15T06:12:37;10.40;99.90
33023;DHT22;19390;51.460;5.710;2023-04-15T06:15:03;9.90;99.90
33023;DHT22;19390;51.460;5.710;2023-04-15T06:17:30;9.10;99.90
33023;DHT22;19390;51.460;5.710;2023-04-15T06:19:56;8.70;99.90
33023;DHT22;19390;51.460;5.710;2023-04-15T06:22:22;8.30;99.90
33023;DHT22;19390;51.460;5.710;2023-04-15T06:24:49;7.90;99.90
33023;DHT22;19390;51.460;5.710;2023-04-15T06:27:16;8.30;99.90
33023;DHT22;19390;51.460;5.710;2023-04-15T06:29:41;8.40;99.90
33023;DHT22;19390;51.460;5.710;2023-04-15T06:32:07;8.60;99.90
33023;DHT22;19390;51.460;5.710;2023-04-15T06:34:33;8.40;99.90
33023;DHT22;19390;51.460;5.710;2023-04-15T06:36:58;8.40;99.90
33023;DHT22;19390;51.460;5.710;2023-04-15T06:39:25;8.70;99.90
33023;DHT22;19390;51.460;5.710;2023-04-15T06:41:51;9.20;99.90
33023;DHT22;19390;51.460;5.710;2023-04-15T06:44:17;9.20;99.90
33023;DHT22;19390;51.460;5.710;2023-04-15T06:46:43;9.40;99.90
33023;DHT22;19390;51.460;5.710;2023-04-15T06:49:09;9.90;99.90
33023;DHT22;19390;51.460;5.710;2023-04-15T06:51:35;10.10;99.90
33023;DHT22;19390;51.460;5.710;2023-04-15T06:54:01;10.40;99.90
33023;DHT22;19390;51.460;5.710;2023-04-15T06:56:27;10.60;99.90
33023;DHT22;19390;51.460;5.710;2023-04-15T06:58:52;11.40;99.90
33023;DHT22;19390;51.460;5.710;2023-04-15T07:01:18;11.70;1.00
33023;DHT22;19390;51.460;5.710;2023-04-15T07:03:44;11.80;1.00
33023;DHT22;19390;51.460;5.710;2023-04-15T07:06:09;12.70;1.00
33023;DHT22;19390;51.460;5.710;2023-04-15T07:08:35;13.30;99.90
33023;DHT22;19390;51.460;5.710;2023-04-15T07:11:01;13.50;33.40
33023;DHT22;19390;51.460;5.710;2023-04-15T07:13:26;13.80;1.00
33023;DHT22;19390;51.460;5.710;2023-04-15T07:15:52;16.30;1.00
33023;DHT22;19390;51.460;5.710;2023-04-15T07:18:17;15.40;1.00
33023;DHT22;19390;51.460;5.710;2023-04-15T07:20:43;15.40;1.00
33023;DHT22;19390;51.460;5.710;2023-04-15T07:23:08;15.30;1.00
33023;DHT22;19390;51.460;5.710;2023-04-15T07:25:35;13.90;1.00
33023;DHT22;19390;51.460;5.710;2023-04-15T07:28:01;14.10;1.00
33023;DHT22;19390;51.460;5.710;2023-04-15T07:30:26;15.10;99.90
33023;DHT22;19390;51.460;5.710;2023-04-15T07:32:53;14.90;1.00
33023;DHT22;19390;51.460;5.710;2023-04-15T07:35:18;16.50;1.00
33023;DHT22;19390;51.460;5.710;2023-04-15T07:37:46;16.10;1.00
33023;DHT22;19390;51.460;5.710;2023-04-15T07:40:12;15.10;1.00
33023;DHT22;19390;51.460;5.710;2023-04-15T07:42:39;16.40;1.00
33023;DHT22;19390;51.460;5.710;2023-04-15T07:45:04;18.00;1.00
33023;DHT22;19390;51.460;5.710;2023-04-15T07:47:31;17.00;99.90
33023;DHT22;19390;51.460;5.710;2023-04-15T07:49:56;20.00;99.90
33023;DHT22;19390;51.460;5.710;2023-04-15T07:52:22;18.70;99.90
33023;DHT22;19390;51.460;5.710;2023-04-15T07:54:47;17.30;99.90
33023;DHT22;19390;51.460;5.710;2023-04-15T07:57:13;16.30;1.00
33023;DHT22;19390;51.460;5.710;2023-04-15T07:59:39;18.50;1.00
33023;DHT22;19390;51.460;5.710;2023-04-15T08:02:04;20.20;99.90
33023;DHT22;19390;51.460;5.710;2023-04-15T08:04:30;19.40;1.00
33023;DHT22;19390;51.460;5.710;2023-04-15T08:06:56;19.40;1.00
33023;DHT22;19390;51.460;5.710;2023-04-15T08:09:22;21.10;1.00
33023;DHT22;19390;51.460;5.710;2023-04-15T08:11:48;19.80;1.00
33023;DHT22;19390;51.460;5.710;2023-04-15T08:14:15;19.60;99.90
33023;DHT22;19390;51.460;5.710;2023-04-15T08:16:41;19.30;1.00
33023;DHT22;19390;51.460;5.710;2023-04-15T08:19:06;18.90;99.90
33023;DHT22;19390;51.460;5.710;2023-04-15T08:21:32;20.10;1.00
33023;DHT22;19390;51.460;5.710;2023-04-15T08:23:58;21.70;99.90
33023;DHT22;19390;51.460;5.710;2023-04-15T08:26:24;20.50;1.00
33023;DHT22;19390;51.460;5.710;2023-04-15T08:28:50;20.70;1.00
33023;DHT22;19390;51.460;5.710;2023-04-15T08:31:17;18.80;1.00
33023;DHT22;19390;51.460;5.710;2023-04-15T08:33:43;18.70;1.00
33023;DHT22;19390;51.460;5.710;2023-04-15T08:36:09;18.10;1.00
33023;DHT22;19390;51.460;5.710;2023-04-15T08:38:34;17.60;1.00
33023;DHT22;19390;51.460;5.710;2023-04-15T08:41:03;17.00;1.00
33023;DHT22;19390;51.460;5.710;2023-04-15T08:43:34;15.70;1.00
33023;DHT22;19390;51.460;5.710;2023-04-15T08:46:03;15.10;99.90
33023;DHT22;19390;51.460;5.710;2023-04-15T08:48:32;16.00;1.00
33023;DHT22;19390;51.460;5.710;2023-04-15T08:50:59;18.40;1.00
33023;DHT22;19390;51.460;5.710;2023-04-15T08:53:27;19.00;99.90
33023;DHT22;19390;51.460;5.710;2023-04-15T08:55:56;20.00;1.00
33023;DHT22;19390;51.460;5.710;2023-04-15T08:58:23;19.60;1.00
33023;DHT22;19390;51.460;5.710;2023-04-15T09:00:49;19.70;1.00
33023;DHT22;19390;51.460;5.710;2023-04-15T09:03:15;19.70;1.00
33023;DHT22;19390;51.460;5.710;2023-04-15T09:05:42;19.40;1.00
33023;DHT22;19390;51.460;5.710;2023-04-15T09:08:07;20.80;1.00
33023;DHT22;19390;51.460;5.710;2023-04-15T09:10:33;20.20;99.90
33023;DHT22;19390;51.460;5.710;2023-04-15T09:13:00;20.30;1.00
33023;DHT22;19390;51.460;5.710;2023-04-15T09:15:26;21.70;1.00
33023;DHT22;19390;51.460;5.710;2023-04-15T09:17:54;20.10;1.00
33023;DHT22;19390;51.460;5.710;2023-04-15T09:20:21;20.80;1.00
33023;DHT22;19390;51.460;5.710;2023-04-15T09:22:47;20.10;1.00
33023;DHT22;19390;51.460;5.710;2023-04-15T09:27:53;22.30;1.00
33023;DHT22;19390;51.460;5.710;2023-04-15T09:30:19;22.00;1.00
33023;DHT22;19390;51.460;5.710;2023-04-15T09:32:56;22.60;1.00
33023;DHT22;19390;51.460;5.710;2023-04-15T09:35:22;21.40;1.00
33023;DHT22;19390;51.460;5.710;2023-04-15T09:37:49;21.00;1.00
33023;DHT22;19390;51.460;5.710;2023-04-15T09:40:30;20.60;1.00
33023;DHT22;19390;51.460;5.710;2023-04-15T09:42:56;19.90;1.00
33023;DHT22;19390;51.460;5.710;2023-04-15T09:45:23;19.30;1.00
33023;DHT22;19390;51.460;5.710;2023-04-15T09:47:48;19.40;62.10
33023;DHT22;19390;51.460;5.710;2023-04-15T09:50:17;18.70;1.00
33023;DHT22;19390;51.460;5.710;2023-04-15T09:52:43;20.00;99.90
33023;DHT22;19390;51.460;5.710;2023-04-15T09:55:09;20.30;99.90
33023;DHT22;19390;51.460;5.710;2023-04-15T09:57:36;19.90;99.90
33023;DHT22;19390;51.460;5.710;2023-04-15T10:00:03;20.50;1.00
33023;DHT22;19390;51.460;5.710;2023-04-15T10:02:29;19.90;1.00
33023;DHT22;19390;51.460;5.710;2023-04-15T10:04:56;20.00;99.90
33023;DHT22;19390;51.460;5.710;2023-04-15T10:07:22;20.20;1.00
33023;DHT22;19390;51.460;5.710;2023-04-15T10:09:49;21.30;1.00
33023;DHT22;19390;51.460;5.710;2023-04-15T10:12:16;20.40;1.00
33023;DHT22;19390;51.460;5.710;2023-04-15T10:14:42;20.70;96.30
33023;DHT22;19390;51.460;5.710;2023-04-15T10:17:10;20.00;1.00
33023;DHT22;19390;51.460;5.710;2023-04-15T10:19:37;19.80;1.00
33023;DHT22;19390;51.460;5.710;2023-04-15T10:22:03;20.30;1.00
33023;DHT22;19390;51.460;5.710;2023-04-15T10:24:32;20.00;1.00
33023;DHT22;19390;51.460;5.710;2023-04-15T10:26:59;19.40;99.90
33023;DHT22;19390;51.460;5.710;2023-04-15T10:29:25;18.60;48.90
33023;DHT22;19390;51.460;5.710;2023-04-15T10:31:54;18.00;1.00
33023;DHT22;19390;51.460;5.710;2023-04-15T10:34:22;18.60;99.90
33023;DHT22;19390;51.460;5.710;2023-04-15T10:36:48;18.20;1.00
33023;DHT22;19390;51.460;5.710;2023-04-15T10:42:18;17.80;1.00
33023;DHT22;19390;51.460;5.710;2023-04-15T10:44:47;18.10;1.00
33023;DHT22;19390;51.460;5.710;2023-04-15T10:47:15;18.20;1.00
33023;DHT22;19390;51.460;5.710;2023-04-15T10:50:00;18.30;99.90
33023;DHT22;19390;51.460;5.710;2023-04-15T10:52:27;18.90;99.90
33023;DHT22;19390;51.460;5.710;2023-04-15T10:55:11;18.70;1.00
33023;DHT22;19390;51.460;5.710;2023-04-15T10:57:38;19.00;99.90
33023;DHT22;19390;51.460;5.710;2023-04-15T11:00:09;20.40;99.90
33023;DHT22;19390;51.460;5.710;2023-04-15T11:05:18;19.80;1.00
33023;DHT22;19390;51.460;5.710;2023-04-15T11:07:49;20.20;1.00
33023;DHT22;19390;51.460;5.710;2023-04-15T11:12:52;19.40;99.90
33023;DHT22;19390;51.460;5.710;2023-04-15T11:18:20;18.30;1.00
33023;DHT22;19390;51.460;5.710;2023-04-15T11:21:08;17.90;1.00
33023;DHT22;19390;51.460;5.710;2023-04-15T11:23:41;17.60;1.00
33023;DHT22;19390;51.460;5.710;2023-04-15T11:26:13;18.50;1.00
33023;DHT22;19390;51.460;5.710;2023-04-15T11:28:41;18.50;1.00
33023;DHT22;19390;51.460;5.710;2023-04-15T11:31:15;17.50;1.00
33023;DHT22;19390;51.460;5.710;2023-04-15T11:33:52;17.80;1.00
33023;DHT22;19390;51.460;5.710;2023-04-15T11:36:18;17.80;1.00
33023;DHT22;19390;51.460;5.710;2023-04-15T11:38:46;18.40;99.90
33023;DHT22;19390;51.460;5.710;2023-04-15T11:41:11;18.20;1.00
33023;DHT22;19390;51.460;5.710;2023-04-15T11:43:37;18.40;99.90
33023;DHT22;19390;51.460;5.710;2023-04-15T11:46:02;18.40;1.00
33023;DHT22;19390;51.460;5.710;2023-04-15T11:48:33;18.60;1.00
33023;DHT22;19390;51.460;5.710;2023-04-15T11:51:06;18.00;99.90
33023;DHT22;19390;51.460;5.710;2023-04-15T11:53:37;18.30;1.00
33023;DHT22;19390;51.460;5.710;2023-04-15T11:56:04;18.50;1.00
33023;DHT22;19390;51.460;5.710;2023-04-15T11:58:30;19.00;1.00
33023;DHT22;19390;51.460;5.710;2023-04-15T12:00:59;19.20;1.00
33023;DHT22;19390;51.460;5.710;2023-04-15T12:03:27;20.00;1.00
33023;DHT22;19390;51.460;5.710;2023-04-15T12:09:04;19.00;1.00
33023;DHT22;19390;51.460;5.710;2023-04-15T12:11:33;20.30;1.00
33023;DHT22;19390;51.460;5.710;2023-04-15T12:16:34;20.80;99.90
33023;DHT22;19390;51.460;5.710;2023-04-15T12:19:03;20.50;1.00
33023;DHT22;19390;51.460;5.710;2023-04-15T12:21:33;20.00;99.90
33023;DHT22;19390;51.460;5.710;2023-04-15T12:24:05;19.50;99.90
33023;DHT22;19390;51.460;5.710;2023-04-15T12:26:52;21.30;1.00
33023;DHT22;19390;51.460;5.710;2023-04-15T12:29:18;19.50;1.00
33023;DHT22;19390;51.460;5.710;2023-04-15T12:34:36;20.80;1.00
33023;DHT22;19390;51.460;5.710;2023-04-15T12:37:04;19.50;1.00
33023;DHT22;19390;51.460;5.710;2023-04-15T12:39:35;20.50;1.00
33023;DHT22;19390;51.460;5.710;2023-04-15T12:42:01;19.50;99.90
33023;DHT22;19390;51.460;5.710;2023-04-15T12:44:28;19.00;1.00
33023;DHT22;19390;51.460;5.710;2023-04-15T12:46:56;18.60;1.00
33023;DHT22;19390;51.460;5.710;2023-04-15T12:49:22;18.10;1.00
33023;DHT22;19390;51.460;5.710;2023-04-15T12:51:49;17.20;1.00
33023;DHT22;19390;51.460;5.710;2023-04-15T12:54:19;17.40;1.00
33023;DHT22;19390;51.460;5.710;2023-04-15T12:56:45;19.40;1.00
33023;DHT22;19390;51.460;5.710;2023-04-15T12:59:11;20.10;1.00
33023;DHT22;19390;51.460;5.710;2023-04-15T13:01:37;19.70;1.00
33023;DHT22;19390;51.460;5.710;2023-04-15T13:04:03;18.70;1.00
33023;DHT22;19390;51.460;5.710;2023-04-15T13:06:29;18.40;1.00
33023;DHT22;19390;51.460;5.710;2023-04-15T13:08:57;17.60;99.90
33023;DHT22;19390;51.460;5.710;2023-04-15T13:11:23;19.10;1.00
33023;DHT22;19390;51.460;5.710;2023-04-15T13:13:49;19.60;1.00
33023;DHT22;19390;51.460;5.710;2023-04-15T13:16:16;20.00;1.00
33023;DHT22;19390;51.460;5.710;2023-04-15T13:18:42;18.60;99.90
33023;DHT22;19390;51.460;5.710;2023-04-15T13:21:07;17.80;99.90
33023;DHT22;19390;51.460;5.710;2023-04-15T13:23:35;18.70;1.00
33023;DHT22;19390;51.460;5.710;2023-04-15T13:26:00;17.40;1.00
33023;DHT22;19390;51.460;5.710;2023-04-15T13:28:26;17.40;1.00
33023;DHT22;19390;51.460;5.710;2023-04-15T13:30:51;17.90;1.00
33023;DHT22;19390;51.460;5.710;2023-04-15T13:33:17;19.60;1.00
33023;DHT22;19390;51.460;5.710;2023-04-15T13:35:43;19.90;1.00
33023;DHT22;19390;51.460;5.710;2023-04-15T13:38:08;18.10;1.00
33023;DHT22;19390;51.460;5.710;2023-04-15T13:40:34;19.60;1.00
33023;DHT22;19390;51.460;5.710;2023-04-15T13:42:59;21.10;1.00
33023;DHT22;19390;51.460;5.710;2023-04-15T13:45:26;19.80;1.00
33023;DHT22;19390;51.460;5.710;2023-04-15T13:47:52;18.00;99.90
33023;DHT22;19390;51.460;5.710;2023-04-15T13:50:17;19.00;99.90
33023;DHT22;19390;51.460;5.710;2023-04-15T13:52:43;19.90;99.90
33023;DHT22;19390;51.460;5.710;2023-04-15T13:55:09;19.50;99.90
33023;DHT22;19390;51.460;5.710;2023-04-15T13:57:35;18.00;1.00
33023;DHT22;19390;51.460;5.710;2023-04-15T14:00:01;19.10;1.00
33023;DHT22;19390;51.460;5.710;2023-04-15T14:02:27;21.00;1.00
33023;DHT22;19390;51.460;5.710;2023-04-15T14:04:52;19.60;1.00
33023;DHT22;19390;51.460;5.710;2023-04-15T14:07:18;17.80;99.90
33023;DHT22;19390;51.460;5.710;2023-04-15T14:09:43;18.30;1.00
33023;DHT22;19390;51.460;5.710;2023-04-15T14:12:09;18.70;1.00
33023;DHT22;19390;51.460;5.710;2023-04-15T14:14:35;18.30;99.90
33023;DHT22;19390;51.460;5.710;2023-04-15T14:17:02;17.00;1.00
33023;DHT22;19390;51.460;5.710;2023-04-15T14:19:29;17.00;99.90
33023;DHT22;19390;51.460;5.710;2023-04-15T14:21:55;17.30;99.90
33023;DHT22;19390;51.460;5.710;2023-04-15T14:24:20;17.30;1.00
33023;DHT22;19390;51.460;5.710;2023-04-15T14:26:46;17.30;1.00
33023;DHT22;19390;51.460;5.710;2023-04-15T14:29:11;16.50;51.30
33023;DHT22;19390;51.460;5.710;2023-04-15T14:31:37;16.90;1.00
33023;DHT22;19390;51.460;5.710;2023-04-15T14:34:04;16.80;1.00
33023;DHT22;19390;51.460;5.710;2023-04-15T14:36:30;16.70;1.00
33023;DHT22;19390;51.460;5.710;2023-04-15T14:38:56;16.10;1.00
33023;DHT22;19390;51.460;5.710;2023-04-15T14:41:22;15.80;1.00
33023;DHT22;19390;51.460;5.710;2023-04-15T14:43:47;15.60;1.00
33023;DHT22;19390;51.460;5.710;2023-04-15T14:46:13;16.20;1.00
33023;DHT22;19390;51.460;5.710;2023-04-15T14:48:39;16.40;1.00
33023;DHT22;19390;51.460;5.710;2023-04-15T14:51:05;16.80;1.00
33023;DHT22;19390;51.460;5.710;2023-04-15T14:53:31;16.60;1.00
33023;DHT22;19390;51.460;5.710;2023-04-15T14:55:56;16.20;1.00
33023;DHT22;19390;51.460;5.710;2023-04-15T14:58:22;16.10;99.90
33023;DHT22;19390;51.460;5.710;2023-04-15T15:00:48;15.50;99.90
33023;DHT22;19390;51.460;5.710;2023-04-15T15:03:13;15.40;1.00
33023;DHT22;19390;51.460;5.710;2023-04-15T15:05:40;15.20;25.80
33023;DHT22;19390;51.460;5.710;2023-04-15T15:08:07;15.80;99.90
33023;DHT22;19390;51.460;5.710;2023-04-15T15:10:33;15.90;1.00
33023;DHT22;19390;51.460;5.710;2023-04-15T15:13:00;15.20;99.90
33023;DHT22;19390;51.460;5.710;2023-04-15T15:15:26;14.80;1.00
33023;DHT22;19390;51.460;5.710;2023-04-15T15:17:52;14.90;1.00
33023;DHT22;19390;51.460;5.710;2023-04-15T15:20:18;15.30;1.00
33023;DHT22;19390;51.460;5.710;2023-04-15T15:22:44;14.80;1.00
33023;DHT22;19390;51.460;5.710;2023-04-15T15:25:09;14.60;1.00
33023;DHT22;19390;51.460;5.710;2023-04-15T15:27:35;15.00;99.90
33023;DHT22;19390;51.460;5.710;2023-04-15T15:30:02;15.10;1.00
33023;DHT22;19390;51.460;5.710;2023-04-15T15:32:27;14.70;1.00
33023;DHT22;19390;51.460;5.710;2023-04-15T15:34:53;14.80;1.00
33023;DHT22;19390;51.460;5.710;2023-04-15T15:37:19;15.00;99.90
33023;DHT22;19390;51.460;5.710;2023-04-15T15:39:45;14.80;59.70
33023;DHT22;19390;51.460;5.710;2023-04-15T15:42:10;14.30;99.90
33023;DHT22;19390;51.460;5.710;2023-04-15T15:44:36;14.10;1.00
33023;DHT22;19390;51.460;5.710;2023-04-15T15:47:03;14.20;99.90
33023;DHT22;19390;51.460;5.710;2023-04-15T15:49:29;14.10;1.00
33023;DHT22;19390;51.460;5.710;2023-04-15T15:51:55;14.10;99.90
33023;DHT22;19390;51.460;5.710;2023-04-15T15:54:21;14.30;1.00
33023;DHT22;19390;51.460;5.710;2023-04-15T15:56:46;14.20;1.00
33023;DHT22;19390;51.460;5.710;2023-04-15T15:59:12;14.20;99.90